Goodman, Missouri
Current Conditions -  °F | °C
As of 1:15 PM on Saturday 25 Oct 2014 (Local Time) from KGMJ Reporting Station
Clear Clear  
Wind Chill: 79°   Ceiling: Unl
Heat Index: 81°   Visibility: 10mi
Dew Point: 64°   Wind: 3mph
Humidity: 61%   Direction: 250°WSW
Pressure: 30.08"   Gusts: NA
Location:  36.74°N, 94.4°W
Report Text: KGMJ 251815Z AUTO 25003KT 10SM CLR 26/18 A3008 RMK AO2
Loading
Personal Weather Stations






























Interactive Weather Map
Tropical Storm Tracking
New forecast layout! Learn more

10-Day Weather Forecast

Advertisements
Track Severe Weather on mobile